This is the latest recevied weather packets stored in our database for station/object HK6RM-17. If no packets are shown the sender has not sent any weather packets the latest 10 day(s).
| Time | Temp. | Humidity | Pressure | Rain* | Wind** | Luminosity | Snow |
|---|---|---|---|---|---|---|---|
| 1777555905 | 19.44° C | 63% | 1014 hPa | 0 mm | - | - | - |
| 1777555303 | 20° C | 63% | 1014 hPa | 0 mm | - | - | - |
| 1777554701 | 15.56° C | 82% | 1014 hPa | 0 mm | - | - | - |
| 1777554101 | 16.11° C | 82% | 1014 hPa | 0 mm | - | - | - |
| 1777553500 | 15.56° C | 82% | 1014 hPa | 0 mm | - | - | - |
| 1777552900 | 16.11° C | 82% | 1014 hPa | 0 mm | - | - | - |
| 1777552296 | 15.56° C | 82% | 1014 hPa | 0 mm | - | - | - |
| 1777551695 | 16.11° C | 82% | 1014 hPa | 0 mm | - | - | - |
| 1777551095 | 12.78° C | 87% | 1014 hPa | 0 mm | - | - | - |
| 1777550494 | 13.33° C | 87% | 1014 hPa | 0 mm | - | - | - |
| 1777549892 | 13.33° C | 87% | 1014 hPa | 0 mm | - | - | - |
| 1777549291 | 13.89° C | 87% | 1015 hPa | 0 mm | - | - | - |
| 1777548691 | 12.78° C | 85% | 1015 hPa | 0 mm | - | - | - |
| 1777548089 | 12.78° C | 84% | 1015 hPa | 0 mm | - | - | - |
| 1777547483 | 13.33° C | 83% | 1015 hPa | 0 mm | - | - | - |
| 1777546880 | 13.89° C | 81% | 1015 hPa | 0 mm | - | - | - |
| 1777546280 | 13.89° C | 80% | 1015 hPa | 0 mm | - | - | - |
| 1777545679 | 13.89° C | 80% | 1015 hPa | 0 mm | - | - | - |
| 1777545077 | 13.89° C | 80% | 1015 hPa | 0 mm | - | - | - |
| 1777544477 | 13.89° C | 80% | 1015 hPa | 0 mm | - | - | - |
| 1777543876 | 14.44° C | 79% | 1015 hPa | 0 mm | - | - | - |
| 1777543275 | 15° C | 78% | 1015 hPa | 0 mm | - | - | - |
| 1777542675 | 15° C | 78% | 1015 hPa | 0 mm | - | - | - |
| 1777542074 | 15° C | 79% | 1015 hPa | 0 mm | - | - | - |
| 1777541473 | 15° C | 79% | 1015 hPa | 0 mm | - | - | - |
* Rain latest hour (hover to see other rain measurements)
** Current wind speed in m/s (hover to see current wind gust speed)